createdAt,value
2022-07-31T00:02:37.609Z,15.10
2022-07-31T00:05:05.462Z,15.10
2022-07-31T00:07:32.771Z,15.00
2022-07-31T00:10:00.408Z,15.00
2022-07-31T00:12:28.397Z,15.00
2022-07-31T00:14:55.496Z,15.00
2022-07-31T00:17:22.479Z,14.90
2022-07-31T00:19:49.507Z,14.90
2022-07-31T00:22:16.779Z,14.90
2022-07-31T00:24:44.119Z,14.90
2022-07-31T00:27:11.740Z,14.80
2022-07-31T00:29:39.935Z,14.80
2022-07-31T00:32:13.411Z,14.80
2022-07-31T00:34:40.801Z,14.80
2022-07-31T00:37:09.268Z,14.70
2022-07-31T00:39:36.639Z,14.70
2022-07-31T00:42:03.955Z,14.70
2022-07-31T00:44:31.474Z,14.60
2022-07-31T00:46:59.245Z,14.60
2022-07-31T00:49:37.784Z,14.60
2022-07-31T00:52:05.909Z,14.60
2022-07-31T00:54:33.996Z,14.60
2022-07-31T00:59:44.167Z,14.60
2022-07-31T01:05:20.317Z,14.60
2022-07-31T01:13:36.820Z,14.50
2022-07-31T01:16:08.015Z,14.40
2022-07-31T01:21:39.995Z,14.30
2022-07-31T01:24:32.383Z,14.30
2022-07-31T01:27:22.671Z,14.30
2022-07-31T01:29:54.937Z,14.30
2022-07-31T01:32:27.979Z,14.30
2022-07-31T01:35:27.388Z,14.30
2022-07-31T01:38:01.898Z,14.30
2022-07-31T01:40:36.233Z,14.30
2022-07-31T01:43:23.915Z,14.30
2022-07-31T01:45:55.599Z,14.30
2022-07-31T01:48:23.945Z,14.30
2022-07-31T01:50:55.304Z,14.30
2022-07-31T01:53:25.194Z,14.30
2022-07-31T01:56:02.154Z,14.30
2022-07-31T01:58:33.908Z,14.30
2022-07-31T02:01:03.987Z,14.30
2022-07-31T02:03:43.851Z,14.30
2022-07-31T02:06:22.336Z,14.30
2022-07-31T02:08:51.970Z,14.30
2022-07-31T02:11:20.379Z,14.30
2022-07-31T02:13:49.089Z,14.30
2022-07-31T02:16:19.765Z,14.30
2022-07-31T02:18:51.260Z,14.30
2022-07-31T02:21:18.625Z,14.40
2022-07-31T02:23:45.945Z,14.30
2022-07-31T02:26:16.036Z,14.30
2022-07-31T02:28:47.134Z,14.40
2022-07-31T02:31:17.126Z,14.40
2022-07-31T02:33:47.223Z,14.40
2022-07-31T02:36:16.375Z,14.30
2022-07-31T02:38:44.450Z,14.30
2022-07-31T02:49:19.805Z,14.30
2022-07-31T02:51:47.506Z,14.30
2022-07-31T02:54:17.646Z,14.30
2022-07-31T02:56:46.531Z,14.30
2022-07-31T02:59:22.307Z,14.30
2022-07-31T03:01:49.399Z,14.30
2022-07-31T03:04:17.942Z,14.30
2022-07-31T03:06:45.118Z,14.40
2022-07-31T03:09:12.295Z,14.40
2022-07-31T03:11:39.653Z,14.50
2022-07-31T03:14:08.933Z,14.50
2022-07-31T03:16:37.032Z,14.50
2022-07-31T03:19:05.833Z,14.70
2022-07-31T03:21:33.480Z,14.70
2022-07-31T03:24:02.157Z,14.70
2022-07-31T03:26:30.752Z,14.90
2022-07-31T03:29:00.813Z,14.90
2022-07-31T03:31:28.113Z,14.90
2022-07-31T03:33:55.149Z,14.80
2022-07-31T03:36:22.743Z,14.80
2022-07-31T03:38:50.865Z,14.80
2022-07-31T03:41:18.092Z,14.80
2022-07-31T03:43:48.587Z,14.90
2022-07-31T03:46:19.147Z,14.90
2022-07-31T03:48:46.952Z,14.90
2022-07-31T03:51:15.702Z,14.90
2022-07-31T03:53:44.500Z,14.90
2022-07-31T03:56:12.591Z,15.00
2022-07-31T03:58:40.213Z,15.00
2022-07-31T04:01:10.489Z,15.10
2022-07-31T04:03:39.649Z,15.20
2022-07-31T04:06:07.150Z,15.30
2022-07-31T04:08:36.063Z,15.40
2022-07-31T04:11:03.287Z,15.50
2022-07-31T04:13:30.567Z,15.60
2022-07-31T04:15:57.710Z,15.80
2022-07-31T04:18:24.780Z,15.90
2022-07-31T04:20:51.961Z,16.00
2022-07-31T04:23:19.132Z,16.20
2022-07-31T04:25:46.987Z,16.40
2022-07-31T04:44:47.626Z,17.20
2022-07-31T04:47:16.241Z,17.10
2022-07-31T04:49:44.189Z,17.10
2022-07-31T04:52:15.591Z,17.10
2022-07-31T04:54:45.347Z,17.10
2022-07-31T04:57:13.532Z,17.20
2022-07-31T04:59:58.562Z,17.40
2022-07-31T05:02:28.403Z,17.50
2022-07-31T05:04:57.142Z,17.70
2022-07-31T05:07:28.880Z,17.80
2022-07-31T05:09:56.968Z,17.90
2022-07-31T05:12:24.131Z,17.80
2022-07-31T05:14:51.320Z,17.70
2022-07-31T05:17:18.407Z,17.70
2022-07-31T05:19:45.924Z,17.60
2022-07-31T05:22:13.213Z,17.60
2022-07-31T05:24:43.268Z,17.60
2022-07-31T05:27:10.853Z,17.70
2022-07-31T05:29:38.232Z,17.70
2022-07-31T05:32:05.727Z,17.70
2022-07-31T05:34:33.134Z,17.70
2022-07-31T05:37:01.906Z,17.70
2022-07-31T05:39:29.624Z,17.80
2022-07-31T05:41:56.977Z,17.80
2022-07-31T05:44:24.774Z,17.90
2022-07-31T05:49:18.616Z,18.00
2022-07-31T05:51:46.892Z,18.10
2022-07-31T05:54:17.751Z,18.10
2022-07-31T05:56:44.731Z,18.20
2022-07-31T05:59:18.172Z,18.20
2022-07-31T06:01:45.809Z,18.20
2022-07-31T06:04:15.238Z,18.10
2022-07-31T06:06:42.549Z,18.10
2022-07-31T06:09:09.532Z,18.20
2022-07-31T06:11:36.963Z,18.10
2022-07-31T06:14:04.099Z,18.10
2022-07-31T06:16:31.262Z,18.20
2022-07-31T06:18:58.257Z,18.30
2022-07-31T06:21:30.114Z,18.40
2022-07-31T06:23:57.670Z,18.40
2022-07-31T06:26:24.717Z,18.40
2022-07-31T06:28:54.710Z,18.50
2022-07-31T06:31:22.462Z,18.50
2022-07-31T06:33:51.030Z,18.50
2022-07-31T06:36:18.959Z,18.60
2022-07-31T06:38:48.549Z,18.60
2022-07-31T06:41:33.918Z,18.60
2022-07-31T06:44:00.909Z,18.70
2022-07-31T06:46:28.116Z,18.70
2022-07-31T06:48:55.147Z,18.80
2022-07-31T06:51:31.205Z,18.90
2022-07-31T06:54:03.808Z,18.90
2022-07-31T06:56:32.161Z,18.90
2022-07-31T06:58:59.231Z,19.00
2022-07-31T07:01:26.581Z,19.00
2022-07-31T07:03:53.890Z,19.10
2022-07-31T07:08:56.375Z,19.10
2022-07-31T07:11:23.424Z,19.20
2022-07-31T07:13:50.984Z,19.30
2022-07-31T07:16:18.614Z,19.40
2022-07-31T07:18:45.696Z,19.50
2022-07-31T07:21:15.255Z,19.50
2022-07-31T07:23:42.531Z,19.60
2022-07-31T07:26:09.961Z,19.70
2022-07-31T07:28:37.203Z,19.80
2022-07-31T07:31:05.510Z,20.00
2022-07-31T07:33:39.887Z,20.10
2022-07-31T07:36:24.146Z,20.30
2022-07-31T07:38:55.199Z,20.50
2022-07-31T07:41:24.051Z,20.60
2022-07-31T07:43:52.378Z,20.70
2022-07-31T07:46:20.926Z,20.80
2022-07-31T07:48:49.331Z,21.00
2022-07-31T07:51:16.718Z,21.00
2022-07-31T07:53:43.818Z,21.10
2022-07-31T07:56:10.944Z,21.20
2022-07-31T07:58:38.234Z,21.20
2022-07-31T08:01:05.233Z,21.30
2022-07-31T08:03:50.772Z,21.40
2022-07-31T08:06:23.458Z,21.50
2022-07-31T08:08:51.121Z,21.50
2022-07-31T08:11:18.876Z,21.50
2022-07-31T08:13:51.062Z,21.70
2022-07-31T08:16:20.511Z,21.90
2022-07-31T08:18:49.327Z,21.90
2022-07-31T08:21:19.637Z,21.90
2022-07-31T08:23:50.586Z,21.90
2022-07-31T08:26:18.660Z,21.80
2022-07-31T08:28:49.565Z,21.90
2022-07-31T08:31:19.058Z,21.90
2022-07-31T08:33:46.865Z,21.90
2022-07-31T08:36:33.910Z,22.00
2022-07-31T08:39:01.025Z,22.00
2022-07-31T08:41:28.064Z,22.10
2022-07-31T08:44:00.279Z,22.10
2022-07-31T08:46:37.762Z,22.20
2022-07-31T08:49:06.140Z,22.20
2022-07-31T08:51:50.580Z,22.20
2022-07-31T08:54:20.443Z,22.00
2022-07-31T08:56:53.772Z,22.00
2022-07-31T08:59:22.242Z,22.00
2022-07-31T09:01:49.728Z,22.00
2022-07-31T09:04:17.186Z,22.00
2022-07-31T09:06:45.077Z,21.90
2022-07-31T09:09:12.176Z,21.80
2022-07-31T09:11:55.009Z,21.70
2022-07-31T09:14:34.912Z,21.80
2022-07-31T09:17:06.727Z,21.90
2022-07-31T09:19:51.741Z,21.80
2022-07-31T09:22:22.525Z,21.80
2022-07-31T09:24:50.147Z,21.90
2022-07-31T09:27:18.217Z,22.00
2022-07-31T09:29:47.029Z,21.90
2022-07-31T09:32:34.169Z,21.90
2022-07-31T09:35:12.082Z,21.90
2022-07-31T09:37:40.376Z,21.90
2022-07-31T09:40:09.705Z,22.10
2022-07-31T09:42:52.906Z,22.20
2022-07-31T09:45:24.435Z,22.10
2022-07-31T09:48:12.398Z,22.00
2022-07-31T09:50:56.393Z,22.20
2022-07-31T09:53:24.347Z,22.30
2022-07-31T09:55:52.952Z,22.50
2022-07-31T09:58:22.680Z,22.60
2022-07-31T10:00:54.003Z,22.70
2022-07-31T10:03:22.563Z,22.70
2022-07-31T10:05:49.902Z,22.80
2022-07-31T10:08:18.095Z,23.00
2022-07-31T10:10:46.692Z,23.10
2022-07-31T10:13:19.598Z,23.10
2022-07-31T10:15:48.720Z,23.10
2022-07-31T10:18:36.452Z,23.20
2022-07-31T10:21:07.081Z,23.30
2022-07-31T10:23:39.201Z,23.20
2022-07-31T10:26:06.932Z,23.10
2022-07-31T10:28:38.225Z,23.20
2022-07-31T10:31:06.473Z,23.40
2022-07-31T10:33:43.927Z,23.70
2022-07-31T10:36:31.628Z,24.00
2022-07-31T10:39:14.613Z,24.30
2022-07-31T10:42:00.340Z,24.40
2022-07-31T10:44:27.213Z,24.30
2022-07-31T10:46:54.377Z,24.40
2022-07-31T10:49:40.005Z,24.50
2022-07-31T10:52:07.660Z,24.60
2022-07-31T10:54:45.785Z,24.20
2022-07-31T10:57:23.746Z,24.10
2022-07-31T10:59:50.889Z,24.00
2022-07-31T11:02:35.254Z,24.00
2022-07-31T11:05:10.089Z,23.90
2022-07-31T11:07:37.703Z,24.00
2022-07-31T11:10:10.810Z,24.20
2022-07-31T11:12:38.167Z,24.40
2022-07-31T11:15:05.708Z,24.40
2022-07-31T11:18:22.527Z,24.60
2022-07-31T11:20:27.367Z,24.60
2022-07-31T11:23:05.039Z,24.70
2022-07-31T11:31:04.777Z,24.70
2022-07-31T11:33:41.742Z,24.70
2022-07-31T11:36:17.652Z,24.60
2022-07-31T11:38:50.059Z,24.60
2022-07-31T11:41:24.022Z,24.60
2022-07-31T11:43:52.755Z,24.50
2022-07-31T11:46:28.092Z,24.40
2022-07-31T11:48:55.926Z,24.50
2022-07-31T11:51:23.836Z,24.30
2022-07-31T11:53:57.296Z,24.20
2022-07-31T11:56:27.629Z,24.00
2022-07-31T11:58:57.679Z,23.90
2022-07-31T12:01:27.958Z,23.90
2022-07-31T12:03:56.527Z,23.70
2022-07-31T12:06:23.680Z,23.60
2022-07-31T12:08:52.570Z,23.70
2022-07-31T12:11:20.714Z,23.70
2022-07-31T12:13:49.301Z,23.80
2022-07-31T12:16:18.802Z,23.80
2022-07-31T12:18:56.418Z,23.80
2022-07-31T12:21:33.439Z,23.90
2022-07-31T12:24:01.232Z,24.00
2022-07-31T12:26:30.749Z,24.00
2022-07-31T12:29:00.825Z,23.90
2022-07-31T12:31:30.797Z,24.00
2022-07-31T12:34:00.391Z,24.20
2022-07-31T12:36:27.601Z,24.20
2022-07-31T12:39:53.918Z,24.40
2022-07-31T12:50:39.933Z,24.70
2022-07-31T12:53:07.507Z,24.70
2022-07-31T12:55:35.113Z,24.60
2022-07-31T12:58:02.624Z,24.60
2022-07-31T13:00:35.747Z,24.70
2022-07-31T13:30:08.428Z,24.20
2022-07-31T13:32:35.668Z,24.20
2022-07-31T13:35:24.250Z,24.10
2022-07-31T13:37:56.819Z,23.90
2022-07-31T13:40:47.842Z,23.80
2022-07-31T13:46:06.054Z,23.80
2022-07-31T13:48:37.459Z,24.00
2022-07-31T13:51:05.472Z,24.10
2022-07-31T13:53:33.545Z,24.20
2022-07-31T13:56:00.870Z,24.20
2022-07-31T14:01:04.638Z,23.80
2022-07-31T14:03:32.270Z,23.80
2022-07-31T14:06:02.722Z,23.80
2022-07-31T14:08:49.336Z,23.70
2022-07-31T14:11:17.121Z,23.70
2022-07-31T14:13:44.099Z,23.70
2022-07-31T14:16:11.232Z,23.70
2022-07-31T14:18:38.360Z,23.70
2022-07-31T14:21:08.692Z,23.90
2022-07-31T14:23:40.490Z,24.00
2022-07-31T14:26:08.482Z,24.00
2022-07-31T14:28:35.832Z,24.10
2022-07-31T14:31:02.878Z,24.20
2022-07-31T14:33:29.924Z,24.10
2022-07-31T14:35:56.964Z,24.10
2022-07-31T14:38:27.215Z,24.20
2022-07-31T14:40:54.897Z,24.10
2022-07-31T14:43:21.888Z,24.10
2022-07-31T14:45:51.687Z,24.10
2022-07-31T14:48:21.034Z,24.10
2022-07-31T14:50:48.070Z,24.10
2022-07-31T14:53:18.146Z,24.10
2022-07-31T14:55:45.271Z,24.00
2022-07-31T14:58:12.274Z,23.90
2022-07-31T15:00:39.253Z,23.80
2022-07-31T15:03:07.184Z,23.70
2022-07-31T15:06:40.930Z,23.60
2022-07-31T15:08:21.813Z,23.50
2022-07-31T15:10:48.755Z,23.50
2022-07-31T15:13:19.007Z,23.50
2022-07-31T15:15:46.158Z,23.40
2022-07-31T15:18:15.750Z,23.40
2022-07-31T15:20:42.721Z,23.40
2022-07-31T15:23:09.694Z,23.30
2022-07-31T15:25:36.801Z,23.30
2022-07-31T15:28:03.889Z,23.30
2022-07-31T15:30:31.029Z,23.20
2022-07-31T15:32:58.534Z,23.10
2022-07-31T15:35:25.572Z,23.10
2022-07-31T15:37:52.538Z,23.10
2022-07-31T15:40:19.474Z,23.10
2022-07-31T15:42:47.111Z,23.10
2022-07-31T15:45:17.062Z,23.10
2022-07-31T15:47:45.528Z,23.20
2022-07-31T15:50:19.018Z,23.10
2022-07-31T15:52:46.190Z,23.10
2022-07-31T15:55:13.837Z,23.10
2022-07-31T15:57:40.834Z,23.00
2022-07-31T16:00:11.417Z,23.00
2022-07-31T16:02:38.889Z,23.00
2022-07-31T16:05:12.008Z,22.90
2022-07-31T16:08:33.096Z,22.90
2022-07-31T16:10:36.802Z,22.90
2022-07-31T16:13:04.320Z,22.80
2022-07-31T16:15:32.119Z,22.80
2022-07-31T16:17:59.107Z,22.70
2022-07-31T16:20:27.098Z,22.70
2022-07-31T16:22:58.100Z,22.70
2022-07-31T16:25:26.124Z,22.70
2022-07-31T16:27:53.125Z,22.60
2022-07-31T16:30:20.241Z,22.60
2022-07-31T16:32:47.178Z,22.50
2022-07-31T16:35:14.388Z,22.50
2022-07-31T16:37:52.519Z,22.50
2022-07-31T16:40:30.123Z,22.50
2022-07-31T16:43:49.403Z,22.40
2022-07-31T16:45:55.261Z,22.40
2022-07-31T16:48:23.095Z,22.40
2022-07-31T16:50:54.190Z,22.40
2022-07-31T16:54:11.608Z,22.30
2022-07-31T16:56:13.170Z,22.30
2022-07-31T16:58:41.043Z,22.30
2022-07-31T17:01:53.179Z,22.20
2022-07-31T17:03:58.880Z,22.10
2022-07-31T17:06:36.821Z,22.10
2022-07-31T17:09:17.143Z,22.00
2022-07-31T17:11:54.360Z,22.00
2022-07-31T17:14:24.383Z,22.00
2022-07-31T17:16:52.852Z,21.90
2022-07-31T17:19:36.026Z,21.90
2022-07-31T17:22:11.378Z,21.90
2022-07-31T17:24:39.588Z,21.80
2022-07-31T17:27:08.811Z,21.80
2022-07-31T17:29:37.586Z,21.70
2022-07-31T17:32:05.845Z,21.70
2022-07-31T17:34:32.945Z,21.60
2022-07-31T17:36:59.970Z,21.60
2022-07-31T17:39:30.844Z,21.60
2022-07-31T17:41:58.963Z,21.60
2022-07-31T17:44:26.260Z,21.60
2022-07-31T17:46:54.622Z,21.60
2022-07-31T17:49:21.651Z,21.60
2022-07-31T17:51:59.345Z,21.60
2022-07-31T17:54:31.683Z,21.60
2022-07-31T17:56:59.518Z,21.50
2022-07-31T17:59:27.195Z,21.50
2022-07-31T18:01:59.941Z,21.40
2022-07-31T18:04:28.979Z,21.40
2022-07-31T18:06:56.860Z,21.40
2022-07-31T18:09:24.601Z,21.30
2022-07-31T18:11:52.958Z,21.20
2022-07-31T18:14:20.820Z,21.20
2022-07-31T18:16:52.046Z,21.10
2022-07-31T18:19:20.247Z,21.10
2022-07-31T18:21:47.557Z,21.00
2022-07-31T18:24:14.536Z,21.00
2022-07-31T18:26:41.607Z,20.90
2022-07-31T18:29:08.549Z,20.90
2022-07-31T18:31:36.192Z,20.80
2022-07-31T18:34:07.037Z,20.80
2022-07-31T18:36:34.552Z,20.70
2022-07-31T18:39:01.837Z,20.70
2022-07-31T18:41:28.991Z,20.60
2022-07-31T18:43:56.177Z,20.60
2022-07-31T18:46:25.072Z,20.50
2022-07-31T18:48:56.695Z,20.40
2022-07-31T18:51:28.521Z,20.40
2022-07-31T18:53:55.902Z,20.40
2022-07-31T18:56:26.674Z,20.30
2022-07-31T18:58:54.861Z,20.20
2022-07-31T19:01:23.659Z,20.20
2022-07-31T19:03:51.727Z,20.20
2022-07-31T19:06:19.223Z,20.10
2022-07-31T19:08:46.336Z,20.10
2022-07-31T19:11:13.387Z,20.00
2022-07-31T19:13:46.896Z,20.00
2022-07-31T19:16:17.649Z,19.90
2022-07-31T19:18:45.232Z,19.80
2022-07-31T19:21:23.335Z,19.80
2022-07-31T19:24:00.191Z,19.80
2022-07-31T19:26:27.197Z,19.70
2022-07-31T19:28:54.179Z,19.70
2022-07-31T19:31:24.472Z,19.70
2022-07-31T19:33:51.453Z,19.60
2022-07-31T19:36:21.896Z,19.60
2022-07-31T19:38:51.397Z,19.60
2022-07-31T19:41:18.537Z,19.50
2022-07-31T19:43:45.512Z,19.50
2022-07-31T19:46:15.493Z,19.40
2022-07-31T19:48:44.186Z,19.40
2022-07-31T19:51:12.636Z,19.40
2022-07-31T19:53:39.723Z,19.30
2022-07-31T19:56:07.432Z,19.20
2022-07-31T19:58:35.911Z,19.20
2022-07-31T20:01:06.824Z,19.20
2022-07-31T20:03:34.034Z,19.20
2022-07-31T20:06:02.064Z,19.10
2022-07-31T20:08:32.829Z,19.10
2022-07-31T20:11:03.504Z,19.10
2022-07-31T20:13:33.124Z,19.00
2022-07-31T20:16:00.988Z,19.00
2022-07-31T20:18:29.230Z,19.00
2022-07-31T20:20:58.783Z,19.00
2022-07-31T20:23:26.966Z,19.00
2022-07-31T20:25:54.146Z,19.00
2022-07-31T20:28:21.503Z,19.00
2022-07-31T20:30:48.541Z,18.90
2022-07-31T20:33:15.752Z,19.00
2022-07-31T20:35:48.956Z,19.00
2022-07-31T20:38:20.527Z,19.00
2022-07-31T20:40:53.804Z,18.90
2022-07-31T20:43:28.426Z,18.90
2022-07-31T20:45:57.816Z,18.90
2022-07-31T20:48:31.500Z,18.90
2022-07-31T20:51:03.447Z,18.90
2022-07-31T20:53:31.830Z,18.90
2022-07-31T20:55:59.378Z,18.90
2022-07-31T20:58:26.691Z,18.90
2022-07-31T21:03:35.117Z,18.80
2022-07-31T21:06:02.662Z,18.80
2022-07-31T21:08:29.587Z,18.80
2022-07-31T21:10:56.736Z,18.70
2022-07-31T21:13:28.126Z,18.70
2022-07-31T21:15:55.071Z,18.60
2022-07-31T21:18:22.271Z,18.60
2022-07-31T21:20:53.539Z,18.60
2022-07-31T21:23:25.430Z,18.60
2022-07-31T21:25:53.927Z,18.60
2022-07-31T21:28:21.988Z,18.60
2022-07-31T21:30:49.751Z,18.60
2022-07-31T21:33:20.177Z,18.60
2022-07-31T21:35:47.560Z,18.50
2022-07-31T21:38:27.410Z,18.50
2022-07-31T21:40:55.895Z,18.50
2022-07-31T21:43:23.185Z,18.50
2022-07-31T21:45:55.483Z,18.50
2022-07-31T21:48:26.066Z,18.40
2022-07-31T21:50:54.131Z,18.40
2022-07-31T21:53:21.423Z,18.40
2022-07-31T21:55:48.803Z,18.40
2022-07-31T21:58:16.262Z,18.40
2022-07-31T22:00:43.834Z,18.30
2022-07-31T22:03:12.377Z,18.30
2022-07-31T22:05:57.899Z,18.30
2022-07-31T22:08:25.052Z,18.20
2022-07-31T22:10:52.531Z,18.20
2022-07-31T22:13:20.407Z,18.20
2022-07-31T22:15:58.988Z,18.10
2022-07-31T22:18:32.748Z,18.10
2022-07-31T22:21:00.806Z,18.10
2022-07-31T22:23:28.626Z,18.10
2022-07-31T22:25:56.400Z,18.10
2022-07-31T22:28:24.731Z,18.00
2022-07-31T22:30:52.822Z,18.00
2022-07-31T22:33:20.370Z,18.00
2022-07-31T22:35:58.731Z,18.00
2022-07-31T22:38:31.497Z,18.00
2022-07-31T22:41:02.050Z,18.00
2022-07-31T22:44:14.025Z,18.00
2022-07-31T22:46:16.272Z,18.00
2022-07-31T22:48:45.369Z,17.90
2022-07-31T22:51:14.625Z,17.90
2022-07-31T22:53:43.304Z,17.90
2022-07-31T22:56:10.338Z,17.90
2022-07-31T22:58:37.247Z,17.90
2022-07-31T23:01:04.463Z,17.80
2022-07-31T23:03:31.429Z,17.80
2022-07-31T23:06:02.793Z,17.80
2022-07-31T23:08:45.452Z,17.70
2022-07-31T23:11:12.706Z,17.70
2022-07-31T23:13:39.770Z,17.70
2022-07-31T23:16:06.744Z,17.70
2022-07-31T23:18:33.991Z,17.70
2022-07-31T23:21:00.899Z,17.70
2022-07-31T23:23:27.781Z,17.70
2022-07-31T23:25:54.750Z,17.70
2022-07-31T23:28:21.653Z,17.70
2022-07-31T23:30:48.517Z,17.70
2022-07-31T23:33:16.996Z,17.70
2022-07-31T23:35:44.374Z,17.70
2022-07-31T23:38:11.431Z,17.70
2022-07-31T23:40:38.481Z,17.60
2022-07-31T23:43:05.617Z,17.60
2022-07-31T23:45:32.638Z,17.60
2022-07-31T23:47:59.708Z,17.50
2022-07-31T23:50:26.979Z,17.50
2022-07-31T23:52:54.137Z,17.50
2022-07-31T23:55:22.611Z,17.50
2022-07-31T23:57:51.202Z,17.50
